createdAt,value
2018-05-03T00:00:48.321Z,12.68
2018-05-03T00:03:18.461Z,12.58
2018-05-03T00:05:48.485Z,12.61
2018-05-03T00:08:18.721Z,12.71
2018-05-03T00:10:48.974Z,12.82
2018-05-03T00:13:19.323Z,12.75
2018-05-03T00:15:49.875Z,12.72
2018-05-03T00:18:20.035Z,12.59
2018-05-03T00:20:49.811Z,12.48
2018-05-03T00:23:20.747Z,12.57
2018-05-03T00:25:51.004Z,12.54
2018-05-03T00:28:21.941Z,12.55
2018-05-03T00:30:52.400Z,12.51
2018-05-03T00:33:23.314Z,12.51
2018-05-03T00:35:53.773Z,12.45
2018-05-03T00:38:23.843Z,12.47
2018-05-03T00:40:54.147Z,12.38
2018-05-03T00:43:23.908Z,12.42
2018-05-03T00:45:54.225Z,12.39
2018-05-03T00:48:24.388Z,12.37
2018-05-03T00:50:54.288Z,12.29
2018-05-03T00:53:24.227Z,12.18
2018-05-03T00:55:54.403Z,12.19
2018-05-03T00:58:24.334Z,12.26
2018-05-03T01:00:54.432Z,12.36
2018-05-03T01:03:24.636Z,12.47
2018-05-03T01:05:54.526Z,12.49
2018-05-03T01:08:24.784Z,12.47
2018-05-03T01:10:55.079Z,12.48
2018-05-03T01:13:25.012Z,12.50
2018-05-03T01:15:54.826Z,12.57
2018-05-03T01:18:24.900Z,12.50
2018-05-03T01:20:55.359Z,12.45
2018-05-03T01:23:25.708Z,12.38
2018-05-03T01:25:55.861Z,12.46
2018-05-03T01:28:26.974Z,12.42
2018-05-03T01:30:57.509Z,12.38
2018-05-03T01:33:27.784Z,12.27
2018-05-03T01:36:09.471Z,12.29
2018-05-03T01:38:39.575Z,12.31
2018-05-03T01:41:09.802Z,12.31
2018-05-03T01:43:39.703Z,12.38
2018-05-03T01:46:09.953Z,12.47
2018-05-03T01:48:39.981Z,12.44
2018-05-03T01:51:10.300Z,12.45
2018-05-03T01:53:40.545Z,12.44
2018-05-03T01:56:10.507Z,12.35
2018-05-03T01:58:41.228Z,12.27
2018-05-03T02:01:11.477Z,12.07
2018-05-03T02:03:41.691Z,12.10
2018-05-03T02:06:11.856Z,12.14
2018-05-03T02:08:42.032Z,12.13
2018-05-03T02:11:12.225Z,12.15
2018-05-03T02:13:42.284Z,12.10
2018-05-03T02:16:12.520Z,12.03
2018-05-03T02:18:42.740Z,11.93
2018-05-03T02:21:13.029Z,11.92
2018-05-03T02:23:43.289Z,11.99
2018-05-03T02:26:13.670Z,12.01
2018-05-03T02:28:43.888Z,11.96
2018-05-03T02:31:14.077Z,11.93
2018-05-03T02:33:44.239Z,11.90
2018-05-03T02:36:14.047Z,11.83
2018-05-03T02:38:44.041Z,11.82
2018-05-03T02:41:14.251Z,11.56
2018-05-03T02:43:44.827Z,11.56
2018-05-03T02:46:14.966Z,11.68
2018-05-03T02:48:44.876Z,11.74
2018-05-03T02:51:14.997Z,11.65
2018-05-03T02:53:44.821Z,11.65
2018-05-03T02:56:14.923Z,11.68
2018-05-03T02:58:56.627Z,11.67
2018-05-03T03:01:43.771Z,11.65
2018-05-03T03:04:31.172Z,11.67
2018-05-03T03:07:32.631Z,11.80
2018-05-03T03:10:32.575Z,11.90
2018-05-03T03:13:34.550Z,11.95
2018-05-03T03:16:21.929Z,11.76
2018-05-03T03:19:23.784Z,11.94
2018-05-03T03:22:10.996Z,11.78
2018-05-03T03:24:52.396Z,11.77
2018-05-03T03:27:39.642Z,11.85
2018-05-03T03:30:21.105Z,11.92
2018-05-03T03:33:02.859Z,11.98
2018-05-03T03:35:55.485Z,11.98
2018-05-03T03:38:36.874Z,12.05
2018-05-03T03:41:18.314Z,12.13
2018-05-03T03:43:59.768Z,12.13
2018-05-03T03:46:29.605Z,12.32
2018-05-03T03:48:59.425Z,12.34
2018-05-03T03:51:29.193Z,12.34
2018-05-03T03:53:58.977Z,12.43
2018-05-03T03:56:28.769Z,12.56
2018-05-03T03:58:58.575Z,12.59
2018-05-03T04:01:28.383Z,12.70
2018-05-03T04:03:58.176Z,12.61
2018-05-03T04:06:27.919Z,12.65
2018-05-03T04:08:57.684Z,12.74
2018-05-03T04:11:27.440Z,12.67
2018-05-03T04:13:57.267Z,12.79
2018-05-03T04:16:27.013Z,12.59
2018-05-03T04:19:08.597Z,12.37
2018-05-03T04:21:50.016Z,12.20
2018-05-03T04:24:31.690Z,12.14
2018-05-03T04:27:01.507Z,12.19
2018-05-03T04:29:31.379Z,12.26
2018-05-03T04:32:01.984Z,12.24
2018-05-03T04:34:31.862Z,12.57
2018-05-03T04:37:01.534Z,12.69
2018-05-03T04:39:31.349Z,12.77
2018-05-03T04:42:01.174Z,12.72
2018-05-03T04:44:31.241Z,12.79
2018-05-03T04:47:01.059Z,12.87
2018-05-03T04:49:30.829Z,12.72
2018-05-03T04:52:00.635Z,12.64
2018-05-03T04:54:30.440Z,12.79
2018-05-03T04:57:00.236Z,12.84
2018-05-03T04:59:29.997Z,13.14
2018-05-03T05:01:59.866Z,13.31
2018-05-03T05:04:29.680Z,13.24
2018-05-03T05:06:59.547Z,13.55
2018-05-03T05:09:29.358Z,13.69
2018-05-03T05:11:59.131Z,13.79
2018-05-03T05:14:28.913Z,13.82
2018-05-03T05:16:58.702Z,13.83
2018-05-03T05:19:28.408Z,13.98
2018-05-03T05:21:58.266Z,14.06
2018-05-03T05:24:27.988Z,14.14
2018-05-03T05:26:57.919Z,14.04
2018-05-03T05:29:28.666Z,14.19
2018-05-03T05:31:58.529Z,14.10
2018-05-03T05:34:28.340Z,13.97
2018-05-03T05:36:58.141Z,14.16
2018-05-03T05:39:27.877Z,14.37
2018-05-03T05:41:57.658Z,14.38
2018-05-03T05:44:27.383Z,14.49
2018-05-03T05:46:57.166Z,14.55
2018-05-03T05:49:27.019Z,14.46
2018-05-03T05:51:56.795Z,14.58
2018-05-03T05:54:26.611Z,14.64
2018-05-03T05:56:56.482Z,14.70
2018-05-03T05:59:26.272Z,14.81
2018-05-03T06:01:56.139Z,15.03
2018-05-03T06:04:25.935Z,14.93
2018-05-03T06:06:55.677Z,14.88
2018-05-03T06:09:25.478Z,14.87
2018-05-03T06:11:55.186Z,14.69
2018-05-03T06:14:24.935Z,14.59
2018-05-03T06:16:54.786Z,14.77
2018-05-03T06:19:24.524Z,14.72
2018-05-03T06:21:54.352Z,15.02
2018-05-03T06:24:24.197Z,15.28
2018-05-03T06:26:53.946Z,15.57
2018-05-03T06:29:23.776Z,15.69
2018-05-03T06:31:53.568Z,16.01
2018-05-03T06:34:23.342Z,15.95
2018-05-03T06:36:53.127Z,15.84
2018-05-03T06:39:22.876Z,15.61
2018-05-03T06:41:52.676Z,15.44
2018-05-03T06:44:22.451Z,15.54
2018-05-03T06:46:52.281Z,15.58
2018-05-03T06:49:22.044Z,15.64
2018-05-03T06:51:52.684Z,15.94
2018-05-03T06:54:22.482Z,16.07
2018-05-03T06:56:52.337Z,16.48
2018-05-03T06:59:22.089Z,16.42
2018-05-03T07:01:51.917Z,15.99
2018-05-03T07:04:21.731Z,16.20
2018-05-03T07:06:51.557Z,16.28
2018-05-03T07:09:21.300Z,16.35
2018-05-03T07:11:51.138Z,16.56
2018-05-03T07:14:20.988Z,16.65
2018-05-03T07:16:50.820Z,16.70
2018-05-03T07:19:20.590Z,16.74
2018-05-03T07:21:50.381Z,17.39
2018-05-03T07:24:20.123Z,17.54
2018-05-03T07:26:50.069Z,17.84
2018-05-03T07:29:20.046Z,17.87
2018-05-03T07:31:50.383Z,18.25
2018-05-03T07:34:20.194Z,18.51
2018-05-03T07:36:50.011Z,18.92
2018-05-03T07:39:19.762Z,19.17
2018-05-03T07:41:49.582Z,19.40
2018-05-03T07:44:19.433Z,19.33
2018-05-03T07:46:49.256Z,19.52
2018-05-03T07:49:19.079Z,19.72
2018-05-03T07:51:48.846Z,19.81
2018-05-03T07:54:18.609Z,20.05
2018-05-03T07:56:48.429Z,20.31
2018-05-03T07:59:18.132Z,19.98
2018-05-03T08:01:47.925Z,20.39
2018-05-03T08:04:17.893Z,20.92
2018-05-03T08:06:47.711Z,21.12
2018-05-03T08:09:17.467Z,21.42
2018-05-03T08:11:47.289Z,20.84
2018-05-03T08:14:17.859Z,21.12
2018-05-03T08:16:47.642Z,21.16
2018-05-03T08:19:17.426Z,21.02
2018-05-03T08:21:47.285Z,21.64
2018-05-03T08:24:17.138Z,21.76
2018-05-03T08:26:46.979Z,21.75
2018-05-03T08:29:16.867Z,21.64
2018-05-03T08:31:47.128Z,21.77
2018-05-03T08:34:17.895Z,21.93
2018-05-03T08:36:47.742Z,21.66
2018-05-03T08:39:17.543Z,21.75
2018-05-03T08:41:48.321Z,22.07
2018-05-03T08:44:18.071Z,22.12
2018-05-03T08:46:48.477Z,22.14
2018-05-03T08:49:18.294Z,22.45
2018-05-03T08:51:49.865Z,22.67
2018-05-03T08:54:19.647Z,22.35
2018-05-03T08:56:49.442Z,22.63
2018-05-03T08:59:19.180Z,22.76
2018-05-03T09:01:48.975Z,22.62
2018-05-03T09:04:18.772Z,22.57
2018-05-03T09:06:48.535Z,22.77
2018-05-03T09:09:18.262Z,23.56
2018-05-03T09:11:48.051Z,23.80
2018-05-03T09:14:17.813Z,23.98
2018-05-03T09:16:47.625Z,23.60
2018-05-03T09:19:17.383Z,23.24
2018-05-03T09:21:47.180Z,23.53
2018-05-03T09:24:16.945Z,24.01
2018-05-03T09:26:46.788Z,24.54
2018-05-03T09:29:16.625Z,24.63
2018-05-03T09:31:46.381Z,24.65
2018-05-03T09:34:16.139Z,24.96
2018-05-03T09:36:45.920Z,25.01
2018-05-03T09:39:15.715Z,24.87
2018-05-03T09:41:45.515Z,24.97
2018-05-03T09:44:15.294Z,25.36
2018-05-03T09:46:45.122Z,25.80
2018-05-03T09:49:14.932Z,26.25
2018-05-03T09:51:44.760Z,26.49
2018-05-03T09:54:14.569Z,26.61
2018-05-03T09:56:44.404Z,26.31
2018-05-03T09:59:14.115Z,26.32
2018-05-03T10:01:43.933Z,26.03
2018-05-03T10:04:13.732Z,26.05
2018-05-03T10:06:43.552Z,26.76
2018-05-03T10:09:13.316Z,26.60
2018-05-03T10:11:43.047Z,26.91
2018-05-03T10:14:12.903Z,26.55
2018-05-03T10:16:42.623Z,27.11
2018-05-03T10:19:12.417Z,27.71
2018-05-03T10:21:42.142Z,26.79
2018-05-03T10:24:11.946Z,27.00
2018-05-03T10:26:41.826Z,27.04
2018-05-03T10:29:11.593Z,26.95
2018-05-03T10:31:41.336Z,27.01
2018-05-03T10:34:11.103Z,27.32
2018-05-03T10:36:40.860Z,27.40
2018-05-03T10:39:10.636Z,27.60
2018-05-03T10:41:40.411Z,27.41
2018-05-03T10:44:10.204Z,27.23
2018-05-03T10:46:39.981Z,27.76
2018-05-03T10:49:09.738Z,27.64
2018-05-03T10:51:39.537Z,27.92
2018-05-03T10:54:09.303Z,27.93
2018-05-03T10:56:39.627Z,27.39
2018-05-03T10:59:09.377Z,27.53
2018-05-03T11:01:39.187Z,27.40
2018-05-03T11:04:09.035Z,27.39
2018-05-03T11:06:39.005Z,27.49
2018-05-03T11:09:08.765Z,28.25
2018-05-03T11:11:38.584Z,28.65
2018-05-03T11:14:08.445Z,28.96
2018-05-03T11:16:38.236Z,28.84
2018-05-03T11:19:08.043Z,28.58
2018-05-03T11:21:37.755Z,28.42
2018-05-03T11:24:07.490Z,28.65
2018-05-03T11:26:37.272Z,29.18
2018-05-03T11:29:07.026Z,29.58
2018-05-03T11:31:36.872Z,29.84
2018-05-03T11:34:06.697Z,29.81
2018-05-03T11:36:37.090Z,29.33
2018-05-03T11:39:06.893Z,29.28
2018-05-03T11:41:36.644Z,29.33
2018-05-03T11:44:06.421Z,28.62
2018-05-03T11:46:36.259Z,28.62
2018-05-03T11:49:06.038Z,28.59
2018-05-03T11:51:35.829Z,27.97
2018-05-03T11:54:05.651Z,28.29
2018-05-03T11:56:35.433Z,27.98
2018-05-03T11:59:05.203Z,27.40
2018-05-03T12:01:34.964Z,27.63
2018-05-03T12:04:04.805Z,27.53
2018-05-03T12:06:34.599Z,27.68
2018-05-03T12:09:04.473Z,27.03
2018-05-03T12:11:34.270Z,27.20
2018-05-03T12:14:04.094Z,27.27
2018-05-03T12:16:33.921Z,27.41
2018-05-03T12:19:03.662Z,27.34
2018-05-03T12:21:33.439Z,26.93
2018-05-03T12:24:03.225Z,26.94
2018-05-03T12:26:33.273Z,26.89
2018-05-03T12:29:03.143Z,26.68
2018-05-03T12:31:33.751Z,26.47
2018-05-03T12:34:09.077Z,26.37
2018-05-03T12:36:38.852Z,26.02
2018-05-03T12:39:08.701Z,26.13
2018-05-03T12:41:38.483Z,25.78
2018-05-03T12:44:08.342Z,25.80
2018-05-03T12:46:48.325Z,25.84
2018-05-03T12:49:42.447Z,25.67
2018-05-03T12:52:15.683Z,25.79
2018-05-03T12:54:45.702Z,25.84
2018-05-03T12:57:15.633Z,26.05
2018-05-03T12:59:45.410Z,26.04
2018-05-03T13:02:15.293Z,26.09
2018-05-03T13:04:46.736Z,25.95
2018-05-03T13:07:22.388Z,25.74
2018-05-03T13:15:40.486Z,25.77
2018-05-03T13:18:10.544Z,25.51
2018-05-03T13:20:41.383Z,25.33
2018-05-03T13:23:11.214Z,25.49
2018-05-03T13:25:56.067Z,25.35
2018-05-03T13:28:25.873Z,25.32
2018-05-03T13:30:55.654Z,25.31
2018-05-03T13:33:25.569Z,25.16
2018-05-03T13:35:55.363Z,24.99
2018-05-03T13:38:25.115Z,25.09
2018-05-03T13:40:54.960Z,25.08
2018-05-03T13:43:24.791Z,24.98
2018-05-03T13:45:54.645Z,24.94
2018-05-03T13:48:24.476Z,25.29
2018-05-03T13:50:54.216Z,25.18
2018-05-03T13:53:24.056Z,25.11
2018-05-03T13:55:53.795Z,25.06
2018-05-03T13:58:23.566Z,25.05
2018-05-03T14:00:53.370Z,25.15
2018-05-03T14:03:23.175Z,25.24
2018-05-03T14:05:53.008Z,25.23
2018-05-03T14:08:22.829Z,25.46
2018-05-03T14:10:52.633Z,25.76
2018-05-03T14:13:22.433Z,25.71
2018-05-03T14:15:52.267Z,25.73
2018-05-03T14:18:22.023Z,25.92
2018-05-03T14:20:51.831Z,26.08
2018-05-03T14:23:24.357Z,26.29
2018-05-03T14:25:55.886Z,26.42
2018-05-03T14:28:31.897Z,26.46
2018-05-03T14:31:01.695Z,26.67
2018-05-03T14:33:31.524Z,26.81
2018-05-03T14:36:01.351Z,26.78
2018-05-03T14:38:31.076Z,27.10
2018-05-03T14:41:00.814Z,27.44
2018-05-03T14:43:30.616Z,27.29
2018-05-03T14:46:00.456Z,27.12
2018-05-03T14:48:30.233Z,27.09
2018-05-03T14:51:00.060Z,26.97
2018-05-03T14:53:29.968Z,27.41
2018-05-03T14:55:59.695Z,27.52
2018-05-03T14:58:29.448Z,27.76
2018-05-03T15:00:59.240Z,28.05
2018-05-03T15:03:28.992Z,28.13
2018-05-03T15:05:58.842Z,28.15
2018-05-03T15:08:28.614Z,27.63
2018-05-03T15:10:59.080Z,27.57
2018-05-03T15:16:05.035Z,27.89
2018-05-03T15:18:34.795Z,28.19
2018-05-03T15:21:04.526Z,28.10
2018-05-03T15:23:34.369Z,28.00
2018-05-03T15:26:04.140Z,27.76
2018-05-03T15:28:33.935Z,27.60
2018-05-03T15:31:03.726Z,27.71
2018-05-03T15:33:33.542Z,27.88
2018-05-03T15:36:03.820Z,27.52
2018-05-03T15:38:33.595Z,27.67
2018-05-03T15:41:03.366Z,27.46
2018-05-03T15:43:33.105Z,27.39
2018-05-03T15:46:02.952Z,27.21
2018-05-03T15:48:32.758Z,27.11
2018-05-03T15:51:02.577Z,27.29
2018-05-03T15:53:32.407Z,27.27
2018-05-03T15:56:02.190Z,27.14
2018-05-03T15:58:31.981Z,27.14
2018-05-03T16:01:01.753Z,27.05
2018-05-03T16:03:31.559Z,26.71
2018-05-03T16:06:01.381Z,26.70
2018-05-03T16:08:31.224Z,26.69
2018-05-03T16:11:02.078Z,26.69
2018-05-03T16:13:31.935Z,26.54
2018-05-03T16:16:01.789Z,26.39
2018-05-03T16:18:31.589Z,26.48
2018-05-03T16:21:01.383Z,26.35
2018-05-03T16:23:31.277Z,26.37
2018-05-03T16:26:01.100Z,25.97
2018-05-03T16:28:30.869Z,25.91
2018-05-03T16:31:00.688Z,25.79
2018-05-03T16:33:30.472Z,25.98
2018-05-03T16:36:00.283Z,25.94
2018-05-03T16:38:30.805Z,25.71
2018-05-03T16:41:00.608Z,25.70
2018-05-03T16:43:30.401Z,25.52
2018-05-03T16:46:00.225Z,25.21
2018-05-03T16:48:29.974Z,25.21
2018-05-03T16:50:59.802Z,25.16
2018-05-03T16:53:29.613Z,24.67
2018-05-03T16:55:59.437Z,24.65
2018-05-03T16:58:29.195Z,24.64
2018-05-03T17:00:58.951Z,24.73
2018-05-03T17:03:28.751Z,24.55
2018-05-03T17:05:58.532Z,24.56
2018-05-03T17:08:28.295Z,24.35
2018-05-03T17:10:58.086Z,24.22
2018-05-03T17:13:27.858Z,24.03
2018-05-03T17:15:57.695Z,23.97
2018-05-03T17:18:27.454Z,23.73
2018-05-03T17:20:57.187Z,23.65
2018-05-03T17:23:27.000Z,23.51
2018-05-03T17:25:56.803Z,23.49
2018-05-03T17:28:26.605Z,23.49
2018-05-03T17:30:56.381Z,23.32
2018-05-03T17:33:26.149Z,23.35
2018-05-03T17:35:55.916Z,23.26
2018-05-03T17:38:25.646Z,23.11
2018-05-03T17:40:55.406Z,23.10
2018-05-03T17:43:25.168Z,22.85
2018-05-03T17:45:55.041Z,22.67
2018-05-03T17:48:24.830Z,22.57
2018-05-03T17:50:54.682Z,22.53
2018-05-03T17:53:24.482Z,22.48
2018-05-03T17:55:54.322Z,22.41
2018-05-03T17:58:24.048Z,22.47
2018-05-03T18:00:53.798Z,22.28
2018-05-03T18:03:23.586Z,22.20
2018-05-03T18:05:53.368Z,22.13
2018-05-03T18:08:23.086Z,22.10
2018-05-03T18:10:52.919Z,22.06
2018-05-03T18:13:22.608Z,22.01
2018-05-03T18:15:52.420Z,21.95
2018-05-03T18:18:22.163Z,21.96
2018-05-03T18:20:51.935Z,21.95
2018-05-03T18:23:21.898Z,21.86
2018-05-03T18:25:51.809Z,21.81
2018-05-03T18:28:21.709Z,21.74
2018-05-03T18:30:51.732Z,21.47
2018-05-03T18:33:21.840Z,21.48
2018-05-03T18:35:51.864Z,21.42
2018-05-03T18:38:21.811Z,21.35
2018-05-03T18:40:51.844Z,21.40
2018-05-03T18:43:21.640Z,21.39
2018-05-03T18:45:51.414Z,21.39
2018-05-03T18:48:21.242Z,21.34
2018-05-03T18:50:51.085Z,21.27
2018-05-03T18:53:20.953Z,21.21
2018-05-03T18:55:50.746Z,21.16
2018-05-03T18:58:20.704Z,21.08
2018-05-03T19:00:50.534Z,21.09
2018-05-03T19:03:20.385Z,21.06
2018-05-03T19:05:50.226Z,21.09
2018-05-03T19:08:20.053Z,21.11
2018-05-03T19:10:49.962Z,21.05
2018-05-03T19:20:07.583Z,20.51
2018-05-03T19:22:37.700Z,20.48
2018-05-03T19:25:08.809Z,20.53
2018-05-03T19:27:38.581Z,20.57
2018-05-03T19:30:08.384Z,20.44
2018-05-03T19:32:38.172Z,20.17
2018-05-03T19:35:08.805Z,19.65
2018-05-03T19:37:39.156Z,19.51
2018-05-03T19:40:09.748Z,19.43
2018-05-03T19:42:40.396Z,19.43
2018-05-03T19:45:12.012Z,19.37
2018-05-03T19:47:42.532Z,19.34
2018-05-03T19:50:12.829Z,19.28
2018-05-03T19:52:43.294Z,19.33
2018-05-03T19:55:13.898Z,19.16
2018-05-03T19:57:44.361Z,18.96
2018-05-03T20:00:14.759Z,18.97
2018-05-03T20:02:44.984Z,18.96
2018-05-03T20:05:15.456Z,18.80
2018-05-03T20:07:45.972Z,18.65
2018-05-03T20:10:16.526Z,18.62
2018-05-03T20:12:47.633Z,18.56
2018-05-03T20:15:19.340Z,18.69
2018-05-03T20:17:51.245Z,18.77
2018-05-03T20:20:21.665Z,18.75
2018-05-03T20:22:51.793Z,18.91
2018-05-03T20:25:22.012Z,18.84
2018-05-03T20:27:52.694Z,18.72
2018-05-03T20:30:22.808Z,18.46
2018-05-03T20:32:53.269Z,18.33
2018-05-03T20:35:23.600Z,18.50
2018-05-03T20:44:41.488Z,18.42
2018-05-03T20:47:12.799Z,18.41
2018-05-03T20:49:42.615Z,18.50
2018-05-03T20:52:12.768Z,18.63
2018-05-03T20:54:43.473Z,18.70
2018-05-03T20:57:13.585Z,18.70
2018-05-03T20:59:43.841Z,18.73
2018-05-03T21:02:14.015Z,18.69
2018-05-03T21:04:44.046Z,18.75
2018-05-03T21:14:02.129Z,18.47
2018-05-03T21:16:31.915Z,18.60
2018-05-03T21:19:02.156Z,18.56
2018-05-03T21:21:32.229Z,18.50
2018-05-03T21:24:02.379Z,18.45
2018-05-03T21:26:32.126Z,18.47
2018-05-03T21:29:02.366Z,18.49
2018-05-03T21:31:32.795Z,18.50
2018-05-03T21:34:02.585Z,18.55
2018-05-03T21:36:32.459Z,18.60
2018-05-03T21:39:02.724Z,18.48
2018-05-03T21:41:32.863Z,18.44
2018-05-03T21:44:02.654Z,18.41
2018-05-03T21:46:32.613Z,18.26
2018-05-03T21:49:02.828Z,18.31
2018-05-03T21:51:32.843Z,18.31
2018-05-03T21:54:03.311Z,18.50
2018-05-03T21:56:34.144Z,18.52
2018-05-03T21:59:04.240Z,18.41
2018-05-03T22:01:34.130Z,18.32
2018-05-03T22:04:04.489Z,18.25
2018-05-03T22:06:34.673Z,18.43
2018-05-03T22:09:04.549Z,18.25
2018-05-03T22:11:34.730Z,18.15
2018-05-03T22:14:04.529Z,18.09
2018-05-03T22:16:34.358Z,18.09
2018-05-03T22:19:04.519Z,17.96
2018-05-03T22:21:34.649Z,17.93
2018-05-03T22:24:04.965Z,17.86
2018-05-03T22:26:34.783Z,17.71
2018-05-03T22:29:05.170Z,17.52
2018-05-03T22:31:35.300Z,17.45
2018-05-03T22:34:05.614Z,17.16
2018-05-03T22:36:35.763Z,17.13
2018-05-03T22:39:05.583Z,17.16
2018-05-03T22:41:36.402Z,17.32
2018-05-03T22:44:06.862Z,17.32
2018-05-03T22:46:37.112Z,17.44
2018-05-03T22:49:07.582Z,17.49
2018-05-03T22:51:37.399Z,17.46
2018-05-03T22:54:07.607Z,17.40
2018-05-03T22:56:39.460Z,17.42
2018-05-03T22:59:10.604Z,17.43
2018-05-03T23:01:40.374Z,17.28
2018-05-03T23:04:10.797Z,16.81
2018-05-03T23:06:41.041Z,16.85
2018-05-03T23:09:11.359Z,16.85
2018-05-03T23:11:41.107Z,16.89
2018-05-03T23:14:10.876Z,16.82
2018-05-03T23:16:41.061Z,16.76
2018-05-03T23:19:11.240Z,17.01
2018-05-03T23:21:41.659Z,17.17
2018-05-03T23:24:11.485Z,17.20
2018-05-03T23:26:41.847Z,17.16
2018-05-03T23:29:12.175Z,17.11
2018-05-03T23:31:42.556Z,17.07
2018-05-03T23:34:12.573Z,17.16
2018-05-03T23:36:42.642Z,17.21
2018-05-03T23:39:12.689Z,17.37
2018-05-03T23:41:42.640Z,17.50
2018-05-03T23:44:12.685Z,17.66
2018-05-03T23:46:43.181Z,17.70
2018-05-03T23:49:13.368Z,17.71
2018-05-03T23:51:43.474Z,17.66
2018-05-03T23:54:13.564Z,17.64
2018-05-03T23:56:43.721Z,17.63
2018-05-03T23:59:13.834Z,17.59
